Greenbrier Valley Airport
KLWB : now visible

Airfield :











YOU CAN JOIN US ON...

 
LOGIN :

Register | Disclaimer

   EN    FR    IT 

 









Legend :    VFR   Marginal VFR   IFR   Intensive IFR   Very Intensive IFR
Visi :
Ceiling :
>= 8 km
>= 3000ft
5 to 8 km
1000 to 3000 ft
1500m to 5 km
500 to 1000 ft
800 to 1500m
200 to 500 ft
< 800m
< 200 ft
Symbols :   Thunderstorms  Fog  Heavy snow  Heavy precipitations  Wind > 20 kt






- Airport Elevation : 2302 ft


KLWB - Greenbrier Valley

CURRENT METAR :
  • 021651Z 00000KT 10SM SCT026 SCT036 26/20 A3011

EXPIRED METARs :
  • 021551Z 26006KT 10SM SCT020 25/20 A3012 RMK CB DSNT NW/NE
  • 021445Z 25003KT 10SM SCT008 23/20 A3012
  • 020255Z AUTO 00000KT 10SM CLR 20/18 A3014 RMK AO2 T01950184

TAF KLWB
Valid from the 02 at 15:00 until the 03 at 12:00 UTC


021455Z 0215/0312 25003KT P6SM SCT008
FM021600 24006KT P6SM VCTS BKN040CB OVC090
TEMPO 0218/0222 3SM TSRA BR BKN030CB
FM030100 00000KT 5SM BR SCT002 OVC150
FM030500 00000KT 1/4SM -DZ FG VV001
KZDC FIR / North America



MET'MAP, your aeronautical weather chart ! - Copyright ORBIFLY December 2007 - Disclaimer

ORBIFLY MET'MAP TEAM :

Programming & Development : Alexandra Zaïnal
Original concept : Baudouin d'Aumeries
Technical & hardware support : Manuel Goepfert
Assistance : Marc-Olivier Méhu




SOURCES & CREDITS :

   NOAA       Earth
Advisory